createdAt,value
2018-12-31T00:01:12.830Z,91.62
2018-12-31T00:03:41.470Z,91.28
2018-12-31T00:06:10.084Z,90.44
2018-12-31T00:08:38.568Z,90.35
2018-12-31T00:11:07.097Z,90.46
2018-12-31T00:13:35.578Z,90.34
2018-12-31T00:16:04.604Z,90.81
2018-12-31T00:18:33.063Z,90.81
2018-12-31T00:21:01.542Z,90.85
2018-12-31T00:23:30.054Z,91.15
2018-12-31T00:25:58.532Z,91.25
2018-12-31T00:28:27.094Z,91.62
2018-12-31T00:30:55.556Z,92.01
2018-12-31T00:33:24.059Z,92.22
2018-12-31T00:35:52.705Z,92.19
2018-12-31T00:38:21.169Z,92.14
2018-12-31T00:40:50.800Z,91.67
2018-12-31T00:43:19.300Z,91.36
2018-12-31T00:45:47.764Z,91.14
2018-12-31T00:48:16.277Z,91.12
2018-12-31T00:50:44.760Z,91.17
2018-12-31T00:53:14.287Z,91.21
2018-12-31T00:55:42.771Z,90.72
2018-12-31T00:58:11.263Z,90.73
2018-12-31T01:00:39.963Z,90.64
2018-12-31T01:03:08.430Z,90.41
2018-12-31T01:05:37.301Z,90.40
2018-12-31T01:08:05.846Z,90.47
2018-12-31T01:10:34.316Z,90.06
2018-12-31T01:13:02.844Z,90.51
2018-12-31T01:15:31.309Z,90.45
2018-12-31T01:18:00.026Z,90.39
2018-12-31T01:20:29.477Z,90.74
2018-12-31T01:22:58.023Z,91.07
2018-12-31T01:25:27.516Z,91.54
2018-12-31T01:27:56.981Z,91.16
2018-12-31T01:30:25.694Z,91.04
2018-12-31T01:32:54.231Z,90.74
2018-12-31T01:35:24.823Z,91.05
2018-12-31T01:37:53.373Z,91.10
2018-12-31T01:40:21.872Z,90.95
2018-12-31T01:42:50.339Z,91.02
2018-12-31T01:45:19.000Z,91.08
2018-12-31T01:47:47.485Z,90.94
2018-12-31T01:50:15.947Z,91.06
2018-12-31T01:52:44.555Z,91.02
2018-12-31T01:55:13.091Z,90.80
2018-12-31T01:57:41.559Z,91.07
2018-12-31T02:00:10.235Z,91.14
2018-12-31T02:02:38.689Z,91.43
2018-12-31T02:05:07.244Z,91.12
2018-12-31T02:07:35.894Z,91.16
2018-12-31T02:10:06.066Z,91.14
2018-12-31T02:12:34.540Z,91.22
2018-12-31T02:15:03.103Z,91.32
2018-12-31T02:17:31.572Z,91.60
2018-12-31T02:20:00.668Z,91.69
2018-12-31T02:22:29.203Z,91.87
2018-12-31T02:24:57.670Z,91.66
2018-12-31T02:27:26.189Z,92.02
2018-12-31T02:29:54.654Z,92.35
2018-12-31T02:32:23.293Z,92.27
2018-12-31T02:34:51.766Z,92.41
2018-12-31T02:37:20.246Z,92.25
2018-12-31T02:39:48.780Z,92.43
2018-12-31T02:42:17.248Z,92.39
2018-12-31T02:44:46.738Z,92.41
2018-12-31T02:47:15.267Z,92.23
2018-12-31T02:49:43.740Z,92.55
2018-12-31T02:52:12.255Z,92.60
2018-12-31T02:54:40.720Z,92.45
2018-12-31T02:57:10.218Z,92.79
2018-12-31T02:59:38.707Z,92.87
2018-12-31T03:02:07.197Z,93.10
2018-12-31T03:04:35.696Z,93.11
2018-12-31T03:07:04.325Z,93.01
2018-12-31T03:09:35.013Z,93.31
2018-12-31T03:12:03.484Z,93.19
2018-12-31T03:14:32.044Z,93.37
2018-12-31T03:17:00.645Z,93.46
2018-12-31T03:19:29.103Z,93.31
2018-12-31T03:21:57.732Z,92.83
2018-12-31T03:24:26.203Z,92.99
2018-12-31T03:26:54.706Z,93.18
2018-12-31T03:29:23.195Z,93.53
2018-12-31T03:31:51.683Z,93.78
2018-12-31T03:34:20.375Z,93.97
2018-12-31T03:36:48.844Z,94.16
2018-12-31T03:39:17.314Z,94.26
2018-12-31T03:41:45.854Z,94.10
2018-12-31T03:44:14.363Z,94.32
2018-12-31T03:46:43.056Z,94.53
2018-12-31T03:49:11.586Z,94.61
2018-12-31T03:51:40.060Z,94.74
2018-12-31T03:54:08.643Z,94.86
2018-12-31T03:56:37.114Z,95.01
2018-12-31T03:59:05.929Z,95.26
2018-12-31T04:01:34.468Z,95.57
2018-12-31T04:04:02.957Z,96.03
2018-12-31T04:06:31.476Z,96.41
2018-12-31T04:08:59.948Z,96.76
2018-12-31T04:11:28.666Z,97.08
2018-12-31T04:13:57.163Z,97.33
2018-12-31T04:16:25.702Z,97.62
2018-12-31T04:18:54.206Z,98.69
2018-12-31T04:21:22.740Z,98.69
2018-12-31T04:23:51.341Z,99.03
2018-12-31T04:26:19.819Z,99.40
2018-12-31T04:28:48.290Z,99.70
2018-12-31T04:31:16.875Z,99.87
2018-12-31T04:33:45.350Z,99.97
2018-12-31T04:36:14.139Z,99.76
2018-12-31T04:38:42.689Z,99.60
2018-12-31T04:41:11.241Z,99.60
2018-12-31T04:43:39.776Z,99.40
2018-12-31T04:46:08.325Z,99.23
2018-12-31T04:48:36.901Z,99.08
2018-12-31T04:51:05.675Z,99.12
2018-12-31T04:53:34.222Z,99.13
2018-12-31T04:56:02.761Z,99.12
2018-12-31T04:58:31.372Z,99.30
2018-12-31T05:00:59.856Z,99.47
2018-12-31T05:03:28.356Z,99.42
2018-12-31T05:05:57.218Z,99.46
2018-12-31T05:08:26.709Z,99.53
2018-12-31T05:10:55.295Z,99.43
2018-12-31T05:13:23.894Z,99.41
2018-12-31T05:15:52.443Z,99.48
2018-12-31T05:18:20.907Z,99.41
2018-12-31T05:20:49.444Z,99.61
2018-12-31T05:23:17.989Z,100.00
2018-12-31T05:25:46.729Z,100.00
2018-12-31T05:28:15.209Z,100.00
2018-12-31T05:30:43.675Z,100.00
2018-12-31T05:33:12.225Z,100.00
2018-12-31T05:35:40.716Z,100.00
2018-12-31T05:38:09.510Z,100.00
2018-12-31T05:40:37.940Z,100.00
2018-12-31T05:43:06.519Z,100.00
2018-12-31T05:45:35.037Z,100.00
2018-12-31T05:48:06.408Z,100.00
2018-12-31T05:50:35.076Z,100.00
2018-12-31T05:53:03.551Z,100.00
2018-12-31T05:55:32.021Z,100.00
2018-12-31T05:58:00.533Z,100.00
2018-12-31T06:00:29.014Z,100.00
2018-12-31T06:02:57.815Z,100.00
2018-12-31T06:05:26.281Z,100.00
2018-12-31T06:07:54.756Z,100.00
2018-12-31T06:10:23.269Z,100.00
2018-12-31T06:12:51.747Z,100.00
2018-12-31T06:15:20.429Z,100.00
2018-12-31T06:17:49.808Z,100.00
2018-12-31T06:20:18.414Z,100.00
2018-12-31T06:22:46.931Z,100.00
2018-12-31T06:25:15.454Z,100.00
2018-12-31T06:27:44.085Z,100.00
2018-12-31T06:30:12.565Z,100.00
2018-12-31T06:32:42.043Z,100.00
2018-12-31T06:35:10.557Z,100.00
2018-12-31T06:37:39.121Z,100.00
2018-12-31T06:40:07.845Z,100.00
2018-12-31T06:42:36.339Z,100.00
2018-12-31T06:45:04.965Z,100.00
2018-12-31T06:47:33.494Z,100.00
2018-12-31T06:50:01.969Z,100.00
2018-12-31T06:52:30.580Z,100.00
2018-12-31T06:54:59.140Z,100.00
2018-12-31T06:57:27.595Z,100.00
2018-12-31T06:59:56.171Z,100.00
2018-12-31T07:02:25.590Z,100.00
2018-12-31T07:04:54.564Z,100.00
2018-12-31T07:07:23.044Z,100.00
2018-12-31T07:09:51.519Z,100.00
2018-12-31T07:12:20.037Z,100.00
2018-12-31T07:14:49.414Z,100.00
2018-12-31T07:17:18.210Z,100.00
2018-12-31T07:19:46.690Z,100.00
2018-12-31T07:22:15.163Z,100.00
2018-12-31T07:24:45.325Z,100.00
2018-12-31T07:27:13.832Z,100.00
2018-12-31T07:29:42.631Z,100.00
2018-12-31T07:32:12.026Z,100.00
2018-12-31T07:34:40.504Z,100.00
2018-12-31T07:37:09.979Z,100.00
2018-12-31T07:39:38.486Z,100.00
2018-12-31T07:42:07.151Z,100.00
2018-12-31T07:44:35.721Z,100.00
2018-12-31T07:47:04.560Z,100.00
2018-12-31T07:49:33.103Z,100.00
2018-12-31T07:52:01.582Z,100.00
2018-12-31T07:54:30.319Z,100.00
2018-12-31T07:56:58.837Z,100.00
2018-12-31T07:59:27.438Z,100.00
2018-12-31T08:01:55.974Z,100.00
2018-12-31T08:04:24.498Z,100.00
2018-12-31T08:06:53.083Z,100.00
2018-12-31T08:09:21.860Z,100.00
2018-12-31T08:11:50.362Z,100.00
2018-12-31T08:14:18.861Z,100.00
2018-12-31T08:16:47.492Z,100.00
2018-12-31T08:19:16.056Z,100.00
2018-12-31T08:21:44.559Z,100.00
2018-12-31T08:24:13.258Z,100.00
2018-12-31T08:26:41.789Z,100.00
2018-12-31T08:29:10.297Z,100.00
2018-12-31T08:31:38.885Z,99.84
2018-12-31T08:34:07.421Z,99.67
2018-12-31T08:36:35.982Z,99.74
2018-12-31T08:39:07.085Z,99.42
2018-12-31T08:41:36.578Z,99.57
2018-12-31T08:44:05.078Z,99.21
2018-12-31T08:46:33.558Z,98.86
2018-12-31T08:49:02.528Z,98.79
2018-12-31T08:51:30.998Z,99.09
2018-12-31T08:53:59.629Z,98.81
2018-12-31T08:56:28.192Z,98.47
2018-12-31T08:58:56.639Z,98.00
2018-12-31T09:01:25.353Z,97.87
2018-12-31T09:03:53.932Z,97.62
2018-12-31T09:06:22.485Z,97.41
2018-12-31T09:08:51.005Z,97.37
2018-12-31T09:11:19.467Z,97.42
2018-12-31T09:13:48.089Z,97.18
2018-12-31T09:16:16.625Z,97.18
2018-12-31T09:18:45.133Z,97.20
2018-12-31T09:21:13.659Z,96.86
2018-12-31T09:23:42.258Z,96.94
2018-12-31T09:26:11.136Z,97.41
2018-12-31T09:28:39.668Z,97.32
2018-12-31T09:31:09.171Z,96.51
2018-12-31T09:33:37.801Z,96.34
2018-12-31T09:36:06.281Z,96.19
2018-12-31T09:38:35.001Z,96.17
2018-12-31T09:41:03.474Z,95.44
2018-12-31T09:43:31.940Z,95.18
2018-12-31T09:46:00.456Z,94.84
2018-12-31T09:48:28.919Z,94.81
2018-12-31T09:50:57.628Z,94.30
2018-12-31T09:53:26.200Z,93.92
2018-12-31T09:55:54.691Z,93.76
2018-12-31T09:58:23.256Z,93.12
2018-12-31T10:00:51.816Z,93.45
2018-12-31T10:03:20.586Z,93.99
2018-12-31T10:05:49.056Z,93.67
2018-12-31T10:08:17.532Z,93.33
2018-12-31T10:10:47.572Z,93.22
2018-12-31T10:13:16.116Z,92.65
2018-12-31T10:15:44.831Z,93.03
2018-12-31T10:18:13.288Z,93.05
2018-12-31T10:20:41.839Z,93.54
2018-12-31T10:23:10.420Z,93.88
2018-12-31T10:25:39.026Z,93.79
2018-12-31T10:28:07.727Z,93.51
2018-12-31T10:30:36.211Z,93.71
2018-12-31T10:33:07.068Z,94.14
2018-12-31T10:35:35.640Z,94.37
2018-12-31T10:38:04.179Z,94.21
2018-12-31T10:40:32.971Z,94.36
2018-12-31T10:43:01.442Z,94.39
2018-12-31T10:45:30.693Z,94.29
2018-12-31T10:48:00.128Z,94.39
2018-12-31T10:50:28.591Z,94.50
2018-12-31T10:52:57.298Z,94.43
2018-12-31T10:55:25.766Z,94.34
2018-12-31T10:57:54.245Z,94.47
2018-12-31T11:00:22.768Z,94.56
2018-12-31T11:02:51.300Z,94.19
2018-12-31T11:05:20.784Z,94.10
2018-12-31T11:07:50.405Z,94.30
2018-12-31T11:10:19.299Z,94.53
2018-12-31T11:12:48.849Z,93.87
2018-12-31T11:15:17.571Z,93.37
2018-12-31T11:17:46.064Z,93.35
2018-12-31T11:20:15.616Z,93.61
2018-12-31T11:22:44.288Z,93.44
2018-12-31T11:25:12.757Z,93.39
2018-12-31T11:27:41.295Z,93.80
2018-12-31T11:30:09.994Z,93.61
2018-12-31T11:32:40.406Z,93.63
2018-12-31T11:35:09.073Z,93.52
2018-12-31T11:37:37.647Z,93.64
2018-12-31T11:40:07.160Z,93.55
2018-12-31T11:42:35.688Z,93.32
2018-12-31T11:45:04.777Z,93.84
2018-12-31T11:47:33.459Z,93.94
2018-12-31T11:50:01.937Z,94.13
2018-12-31T11:52:30.408Z,94.10
2018-12-31T11:54:58.950Z,94.43
2018-12-31T11:57:27.421Z,94.84
2018-12-31T11:59:56.122Z,94.88
2018-12-31T12:02:24.825Z,95.11
2018-12-31T12:04:53.317Z,95.07
2018-12-31T12:07:21.867Z,95.04
2018-12-31T12:09:50.337Z,94.59
2018-12-31T12:12:19.179Z,93.74
2018-12-31T12:14:47.659Z,93.45
2018-12-31T12:17:16.383Z,93.39
2018-12-31T12:19:44.906Z,93.73
2018-12-31T12:22:14.347Z,94.66
2018-12-31T12:24:42.960Z,94.71
2018-12-31T12:27:11.510Z,94.77
2018-12-31T12:29:40.975Z,95.09
2018-12-31T12:32:09.541Z,95.51
2018-12-31T12:34:38.104Z,95.90
2018-12-31T12:37:06.706Z,95.61
2018-12-31T12:39:35.175Z,95.01
2018-12-31T12:42:03.657Z,94.70
2018-12-31T12:44:33.185Z,94.52
2018-12-31T12:47:01.682Z,94.58
2018-12-31T12:49:30.448Z,94.64
2018-12-31T12:51:58.962Z,94.81
2018-12-31T12:54:27.427Z,94.86
2018-12-31T12:56:56.040Z,94.74
2018-12-31T12:59:24.629Z,94.92
2018-12-31T13:01:53.190Z,94.98
2018-12-31T13:04:22.682Z,94.61
2018-12-31T13:06:51.177Z,94.17
2018-12-31T13:09:19.716Z,94.29
2018-12-31T13:11:48.184Z,94.31
2018-12-31T13:14:16.906Z,94.34
2018-12-31T13:16:45.537Z,93.94
2018-12-31T13:19:14.176Z,94.43
2018-12-31T13:21:42.780Z,94.97
2018-12-31T13:24:11.286Z,94.86
2018-12-31T13:26:43.688Z,94.76
2018-12-31T13:29:10.262Z,94.65
2018-12-31T13:31:43.384Z,94.89
2018-12-31T13:34:12.032Z,94.90
2018-12-31T13:36:41.140Z,95.10
2018-12-31T13:39:09.834Z,95.34
2018-12-31T13:41:39.438Z,95.46
2018-12-31T13:44:07.984Z,95.70
2018-12-31T13:46:36.612Z,96.36
2018-12-31T13:49:05.196Z,96.36
2018-12-31T13:51:33.900Z,96.33
2018-12-31T13:54:02.369Z,96.45
2018-12-31T13:56:30.842Z,96.17
2018-12-31T13:58:59.382Z,95.68
2018-12-31T14:01:27.941Z,95.68
2018-12-31T14:03:56.718Z,95.38
2018-12-31T14:06:25.353Z,95.46
2018-12-31T14:08:55.508Z,95.90
2018-12-31T14:11:24.054Z,96.13
2018-12-31T14:13:52.500Z,96.04
2018-12-31T14:16:21.045Z,95.81
2018-12-31T14:18:50.763Z,95.95
2018-12-31T14:21:19.244Z,95.95
2018-12-31T14:23:47.743Z,96.09
2018-12-31T14:26:16.487Z,96.18
2018-12-31T14:28:44.966Z,95.94
2018-12-31T14:31:15.467Z,95.97
2018-12-31T14:33:44.118Z,95.82
2018-12-31T14:36:12.657Z,95.82
2018-12-31T14:38:41.319Z,95.97
2018-12-31T14:41:11.200Z,95.93
2018-12-31T14:43:39.947Z,96.23
2018-12-31T14:46:08.877Z,96.64
2018-12-31T14:48:37.498Z,97.03
2018-12-31T14:51:06.086Z,97.54
2018-12-31T14:53:34.669Z,97.37
2018-12-31T14:56:03.245Z,97.39
2018-12-31T14:58:31.947Z,96.98
2018-12-31T15:01:00.455Z,97.14
2018-12-31T15:03:28.963Z,97.37
2018-12-31T15:05:57.473Z,97.53
2018-12-31T15:08:25.957Z,97.57
2018-12-31T15:10:54.866Z,97.69
2018-12-31T15:13:23.413Z,97.94
2018-12-31T15:15:51.954Z,98.01
2018-12-31T15:18:20.904Z,98.14
2018-12-31T15:20:49.518Z,98.03
2018-12-31T15:23:18.095Z,97.89
2018-12-31T15:25:46.611Z,97.96
2018-12-31T15:28:15.103Z,97.94
2018-12-31T15:30:43.711Z,97.96
2018-12-31T15:33:12.472Z,97.88
2018-12-31T15:35:41.219Z,97.89
2018-12-31T15:38:09.804Z,98.21
2018-12-31T15:40:38.299Z,98.21
2018-12-31T15:43:06.827Z,98.19
2018-12-31T15:45:35.487Z,98.19
2018-12-31T15:48:04.701Z,98.42
2018-12-31T15:50:33.265Z,98.55
2018-12-31T15:53:01.829Z,98.84
2018-12-31T15:55:30.356Z,99.16
2018-12-31T15:57:59.120Z,99.25
2018-12-31T16:00:27.829Z,99.28
2018-12-31T16:02:56.384Z,99.24
2018-12-31T16:05:25.870Z,99.22
2018-12-31T16:07:54.381Z,99.26
2018-12-31T16:10:22.867Z,99.31
2018-12-31T16:12:51.499Z,99.23
2018-12-31T16:15:19.984Z,98.99
2018-12-31T16:17:48.496Z,98.77
2018-12-31T16:20:17.187Z,98.18
2018-12-31T16:22:45.651Z,97.66
2018-12-31T16:25:14.143Z,97.36
2018-12-31T16:27:42.835Z,96.68
2018-12-31T16:30:12.311Z,96.24
2018-12-31T16:32:40.797Z,96.40
2018-12-31T16:35:09.623Z,96.30
2018-12-31T16:37:38.093Z,96.44
2018-12-31T16:40:07.211Z,96.68
2018-12-31T16:42:36.075Z,96.97
2018-12-31T16:45:05.804Z,97.24
2018-12-31T16:47:34.499Z,97.24
2018-12-31T16:50:05.032Z,96.89
2018-12-31T16:52:33.597Z,97.01
2018-12-31T16:55:02.122Z,97.43
2018-12-31T16:57:30.606Z,97.83
2018-12-31T16:59:59.290Z,97.88
2018-12-31T17:02:28.094Z,98.03
2018-12-31T17:04:56.591Z,97.87
2018-12-31T17:07:28.507Z,97.85
2018-12-31T17:09:55.306Z,97.84
2018-12-31T17:12:23.962Z,97.76
2018-12-31T17:14:52.661Z,97.74
2018-12-31T17:17:21.139Z,97.68
2018-12-31T17:19:49.938Z,97.63
2018-12-31T17:22:18.418Z,97.46
2018-12-31T17:24:47.262Z,97.20
2018-12-31T17:27:15.748Z,96.84
2018-12-31T17:29:44.226Z,96.60
2018-12-31T17:32:12.744Z,96.50
2018-12-31T17:34:41.292Z,96.34
2018-12-31T17:37:10.404Z,96.42
2018-12-31T17:39:38.876Z,96.37
2018-12-31T17:42:09.911Z,96.20
2018-12-31T17:44:38.689Z,96.00
2018-12-31T17:47:07.173Z,95.76
2018-12-31T17:49:35.785Z,95.72
2018-12-31T17:52:04.331Z,95.63
2018-12-31T17:54:32.971Z,95.39
2018-12-31T17:57:01.570Z,94.56
2018-12-31T17:59:30.070Z,93.47
2018-12-31T18:01:58.798Z,93.47
2018-12-31T18:04:27.375Z,93.29
2018-12-31T18:06:56.232Z,93.16
2018-12-31T18:09:25.744Z,93.55
2018-12-31T18:11:54.458Z,93.95
2018-12-31T18:14:23.188Z,94.15
2018-12-31T18:16:51.732Z,94.33
2018-12-31T18:19:20.503Z,94.40
2018-12-31T18:21:49.680Z,94.55
2018-12-31T18:24:18.145Z,94.66
2018-12-31T18:26:46.798Z,95.09
2018-12-31T18:29:15.286Z,94.62
2018-12-31T18:31:43.774Z,94.62
2018-12-31T18:34:12.305Z,93.93
2018-12-31T18:36:40.799Z,92.65
2018-12-31T18:39:09.696Z,92.04
2018-12-31T18:41:38.242Z,92.14
2018-12-31T18:44:06.787Z,92.44
2018-12-31T18:46:37.189Z,92.96
2018-12-31T18:49:05.588Z,93.61
2018-12-31T18:51:34.252Z,93.68
2018-12-31T18:54:02.725Z,93.84
2018-12-31T18:56:31.200Z,94.03
2018-12-31T18:59:00.007Z,94.40
2018-12-31T19:01:28.493Z,94.96
2018-12-31T19:03:57.197Z,95.44
2018-12-31T19:06:25.718Z,95.64
2018-12-31T19:08:55.337Z,96.19
2018-12-31T19:11:24.221Z,96.44
2018-12-31T19:13:52.715Z,96.60
2018-12-31T19:16:22.120Z,96.66
2018-12-31T19:18:50.683Z,96.77
2018-12-31T19:21:20.161Z,96.90
2018-12-31T19:23:49.016Z,97.09
2018-12-31T19:26:17.562Z,97.40
2018-12-31T19:28:46.143Z,97.76
2018-12-31T19:31:14.662Z,97.93
2018-12-31T19:33:43.427Z,98.09
2018-12-31T19:36:17.672Z,98.29
2018-12-31T19:38:47.076Z,98.35
2018-12-31T19:41:15.611Z,98.47
2018-12-31T19:43:44.365Z,98.62
2018-12-31T19:46:13.054Z,98.85
2018-12-31T19:48:42.461Z,99.02
2018-12-31T19:51:11.063Z,99.26
2018-12-31T19:53:39.684Z,99.25
2018-12-31T19:56:08.167Z,99.25
2018-12-31T19:58:36.760Z,99.62
2018-12-31T20:01:06.347Z,99.76
2018-12-31T20:03:35.171Z,99.89
2018-12-31T20:06:03.743Z,100.00
2018-12-31T20:08:32.247Z,100.00
2018-12-31T20:11:00.833Z,100.00
2018-12-31T20:13:29.368Z,100.00
2018-12-31T20:15:58.115Z,100.00
2018-12-31T20:18:26.615Z,100.00
2018-12-31T20:20:55.179Z,100.00
2018-12-31T20:23:23.690Z,100.00
2018-12-31T20:25:52.224Z,100.00
2018-12-31T20:28:20.957Z,100.00
2018-12-31T20:30:49.506Z,100.00
2018-12-31T20:33:18.020Z,100.00
2018-12-31T20:35:46.566Z,100.00
2018-12-31T20:38:15.118Z,100.00
2018-12-31T20:40:43.774Z,100.00
2018-12-31T20:43:14.067Z,100.00
2018-12-31T20:45:42.664Z,100.00
2018-12-31T20:48:11.193Z,100.00
2018-12-31T20:50:39.794Z,100.00
2018-12-31T20:53:08.491Z,100.00
2018-12-31T20:55:37.918Z,100.00
2018-12-31T20:58:06.588Z,100.00
2018-12-31T21:00:35.215Z,100.00
2018-12-31T21:03:03.710Z,100.00
2018-12-31T21:05:32.495Z,100.00
2018-12-31T21:08:02.078Z,100.00
2018-12-31T21:10:30.833Z,100.00
2018-12-31T21:12:59.373Z,100.00
2018-12-31T21:15:27.916Z,100.00
2018-12-31T21:17:56.601Z,100.00
2018-12-31T21:20:25.093Z,100.00
2018-12-31T21:22:53.623Z,100.00
2018-12-31T21:25:22.152Z,100.00
2018-12-31T21:27:50.643Z,100.00
2018-12-31T21:30:19.260Z,100.00
2018-12-31T21:32:47.795Z,100.00
2018-12-31T21:35:16.268Z,100.00
2018-12-31T21:37:46.035Z,100.00
2018-12-31T21:40:14.658Z,100.00
2018-12-31T21:42:43.297Z,100.00
2018-12-31T21:45:11.956Z,100.00
2018-12-31T21:47:40.447Z,100.00
2018-12-31T21:50:09.511Z,100.00
2018-12-31T21:52:38.066Z,100.00
2018-12-31T21:55:07.179Z,100.00
2018-12-31T21:57:37.649Z,100.00
2018-12-31T22:00:08.638Z,100.00
2018-12-31T22:02:37.494Z,100.00
2018-12-31T22:05:06.340Z,100.00
2018-12-31T22:07:34.866Z,100.00
2018-12-31T22:10:04.116Z,100.00
2018-12-31T22:12:32.602Z,100.00
2018-12-31T22:15:01.084Z,100.00
2018-12-31T22:17:29.631Z,100.00
2018-12-31T22:19:58.124Z,100.00
2018-12-31T22:22:26.609Z,100.00
2018-12-31T22:24:55.333Z,100.00
2018-12-31T22:27:23.857Z,100.00
2018-12-31T22:29:52.703Z,100.00
2018-12-31T22:32:21.213Z,100.00
2018-12-31T22:34:49.728Z,100.00
2018-12-31T22:37:20.242Z,100.00
2018-12-31T22:39:48.742Z,100.00
2018-12-31T22:42:17.663Z,100.00
2018-12-31T22:44:46.184Z,100.00
2018-12-31T22:47:14.750Z,100.00
2018-12-31T22:49:43.477Z,100.00
2018-12-31T22:52:12.070Z,100.00
2018-12-31T22:54:40.849Z,100.00
2018-12-31T22:57:09.384Z,100.00
2018-12-31T22:59:37.958Z,100.00
2018-12-31T23:02:09.883Z,100.00
2018-12-31T23:04:38.437Z,100.00
2018-12-31T23:07:07.282Z,100.00
2018-12-31T23:09:41.158Z,100.00
2018-12-31T23:12:06.073Z,100.00
2018-12-31T23:14:34.672Z,100.00
2018-12-31T23:17:03.277Z,100.00
2018-12-31T23:19:32.017Z,100.00
2018-12-31T23:22:00.567Z,100.00
2018-12-31T23:24:29.048Z,100.00
2018-12-31T23:26:57.730Z,100.00
2018-12-31T23:29:26.307Z,100.00
2018-12-31T23:31:54.793Z,100.00
2018-12-31T23:34:24.407Z,100.00
2018-12-31T23:36:52.919Z,100.00
2018-12-31T23:39:21.526Z,100.00
2018-12-31T23:41:50.013Z,100.00
2018-12-31T23:44:18.495Z,100.00
2018-12-31T23:46:47.775Z,100.00
2018-12-31T23:49:16.310Z,100.00
2018-12-31T23:51:45.037Z,100.00
2018-12-31T23:54:13.532Z,100.00
2018-12-31T23:56:42.003Z,100.00
2018-12-31T23:59:10.926Z,100.00
